createdAt,value
2019-06-10T00:01:12.135Z,14.20
2019-06-10T00:03:42.371Z,14.70
2019-06-10T00:06:13.834Z,14.40
2019-06-10T00:09:08.029Z,14.70
2019-06-10T00:11:37.510Z,14.70
2019-06-10T00:14:10.583Z,16.10
2019-06-10T00:16:50.866Z,13.90
2019-06-10T00:19:21.439Z,14.60
2019-06-10T00:21:50.727Z,14.70
2019-06-10T00:24:44.650Z,15.20
2019-06-10T00:27:14.746Z,14.50
2019-06-10T00:29:53.400Z,14.00
2019-06-10T00:32:41.271Z,14.60
2019-06-10T00:35:12.145Z,14.60
2019-06-10T00:38:03.894Z,14.70
2019-06-10T00:40:31.697Z,14.60
2019-06-10T00:43:05.717Z,14.60
2019-06-10T00:45:33.776Z,14.60
2019-06-10T00:48:17.603Z,14.20
2019-06-10T00:50:37.342Z,14.60
2019-06-10T00:53:05.853Z,14.30
2019-06-10T00:55:51.324Z,14.70
2019-06-10T00:58:21.792Z,14.50
2019-06-10T01:00:53.439Z,14.60
2019-06-10T01:03:22.862Z,14.70
2019-06-10T01:05:54.192Z,14.70
2019-06-10T01:08:24.708Z,14.60
2019-06-10T01:11:05.658Z,14.50
2019-06-10T01:13:35.988Z,12.80
2019-06-10T01:16:05.384Z,15.50
2019-06-10T01:18:38.524Z,14.50
2019-06-10T01:21:15.468Z,14.50
2019-06-10T01:23:45.097Z,14.40
2019-06-10T01:26:31.064Z,14.30
2019-06-10T01:29:02.480Z,15.60
2019-06-10T01:31:34.603Z,14.40
2019-06-10T01:34:05.440Z,14.20
2019-06-10T01:36:40.600Z,14.20
2019-06-10T01:39:11.997Z,14.30
2019-06-10T01:41:40.946Z,14.30
2019-06-10T01:44:11.567Z,14.90
2019-06-10T01:46:51.550Z,14.30
2019-06-10T01:49:21.534Z,14.20
2019-06-10T01:52:05.360Z,13.10
2019-06-10T01:54:36.851Z,14.30
2019-06-10T01:57:06.125Z,14.20
2019-06-10T01:59:36.316Z,14.30
2019-06-10T02:02:11.623Z,14.20
2019-06-10T02:04:46.830Z,15.90
2019-06-10T02:07:18.754Z,14.30
2019-06-10T02:09:46.610Z,14.20
2019-06-10T02:12:16.309Z,14.30
2019-06-10T02:14:57.362Z,14.30
2019-06-10T02:17:32.304Z,14.20
2019-06-10T02:20:08.210Z,14.30
2019-06-10T02:22:37.303Z,15.00
2019-06-10T02:25:10.589Z,14.30
2019-06-10T02:27:41.510Z,13.60
2019-06-10T02:30:28.564Z,14.50
2019-06-10T02:32:52.359Z,14.50
2019-06-10T02:35:30.548Z,14.40
2019-06-10T02:37:55.320Z,13.40
2019-06-10T02:40:31.821Z,14.00
2019-06-10T02:46:30.668Z,14.40
2019-06-10T02:48:54.454Z,14.50
2019-06-10T02:51:30.179Z,13.80
2019-06-10T02:53:59.818Z,15.20
2019-06-10T02:56:36.404Z,14.40
2019-06-10T02:59:06.603Z,14.40
2019-06-10T03:01:43.586Z,14.40
2019-06-10T03:04:32.767Z,14.70
2019-06-10T03:07:04.608Z,14.50
2019-06-10T03:09:35.695Z,14.60
2019-06-10T03:12:07.365Z,14.60
2019-06-10T03:14:34.818Z,14.70
2019-06-10T03:17:09.564Z,14.70
2019-06-10T03:19:50.284Z,14.70
2019-06-10T03:22:35.147Z,14.70
2019-06-10T03:25:13.241Z,14.90
2019-06-10T03:30:47.880Z,14.80
2019-06-10T03:33:07.474Z,15.90
2019-06-10T03:38:57.515Z,16.80
2019-06-10T03:45:39.520Z,15.20
2019-06-10T03:48:24.101Z,15.20
2019-06-10T03:50:56.417Z,15.20
2019-06-10T03:53:38.599Z,15.20
2019-06-10T03:56:28.625Z,16.00
2019-06-10T03:59:15.020Z,16.40
2019-06-10T04:01:52.904Z,15.20
2019-06-10T04:04:52.462Z,15.10
2019-06-10T04:10:37.534Z,15.00
2019-06-10T04:13:19.495Z,14.90
2019-06-10T04:15:56.831Z,14.80
2019-06-10T04:18:32.731Z,14.90
2019-06-10T04:21:12.606Z,16.10
2019-06-10T04:24:05.992Z,14.90
2019-06-10T04:26:36.568Z,14.80
2019-06-10T04:29:42.175Z,14.90
2019-06-10T04:32:15.347Z,13.90
2019-06-10T04:34:56.179Z,14.90
2019-06-10T04:40:33.028Z,15.00
2019-06-10T04:43:20.394Z,14.90
2019-06-10T04:48:44.947Z,15.10
2019-06-10T04:51:57.940Z,15.10
2019-06-10T04:54:30.299Z,15.10
2019-06-10T04:57:02.300Z,16.20
2019-06-10T04:59:33.609Z,15.20
2019-06-10T05:02:02.771Z,15.20
2019-06-10T05:04:32.992Z,15.30
2019-06-10T05:07:02.000Z,15.30
2019-06-10T05:09:33.556Z,15.60
2019-06-10T05:12:08.165Z,15.50
2019-06-10T05:14:37.562Z,15.60
2019-06-10T05:17:08.210Z,16.30
2019-06-10T05:19:35.116Z,16.70
2019-06-10T05:22:06.823Z,15.60
2019-06-10T05:24:34.704Z,16.00
2019-06-10T05:27:02.131Z,15.60
2019-06-10T05:29:31.183Z,15.50
2019-06-10T05:32:02.506Z,15.50
2019-06-10T05:34:43.653Z,15.60
2019-06-10T05:37:12.138Z,14.90
2019-06-10T05:39:43.021Z,15.70
2019-06-10T05:42:12.598Z,15.70
2019-06-10T05:44:42.943Z,17.60
2019-06-10T05:47:17.271Z,15.80
2019-06-10T05:55:36.563Z,16.00
2019-06-10T05:58:13.355Z,16.10
2019-06-10T06:00:43.053Z,16.10
2019-06-10T06:03:38.699Z,16.20
2019-06-10T06:09:13.077Z,16.40
2019-06-10T06:11:52.362Z,16.50
2019-06-10T06:14:36.075Z,16.50
2019-06-10T06:17:07.829Z,15.90
2019-06-10T06:19:43.449Z,16.70
2019-06-10T06:22:27.414Z,17.10
2019-06-10T06:25:24.567Z,16.70
2019-06-10T06:30:52.787Z,17.00
2019-06-10T06:33:22.397Z,17.10
2019-06-10T06:36:12.503Z,16.70
2019-06-10T06:38:39.924Z,17.60
2019-06-10T06:41:08.970Z,16.70
2019-06-10T06:43:40.393Z,17.60
2019-06-10T06:46:05.858Z,17.80
2019-06-10T06:48:38.386Z,17.00
2019-06-10T06:51:35.827Z,16.70
2019-06-10T06:53:58.525Z,16.70
2019-06-10T06:56:28.871Z,17.20
2019-06-10T06:58:56.685Z,15.80
2019-06-10T07:01:27.107Z,18.50
2019-06-10T07:03:57.736Z,16.80
2019-06-10T07:06:27.686Z,16.90
2019-06-10T07:09:07.837Z,17.20
2019-06-10T07:11:41.133Z,17.40
2019-06-10T07:14:12.870Z,19.40
2019-06-10T07:16:46.197Z,17.80
2019-06-10T07:19:13.880Z,18.10
2019-06-10T07:22:02.581Z,19.20
2019-06-10T07:24:12.825Z,18.50
2019-06-10T07:26:50.524Z,18.70
2019-06-10T07:29:14.874Z,19.00
2019-06-10T07:31:46.006Z,19.80
2019-06-10T07:34:13.124Z,19.70
2019-06-10T07:36:44.042Z,20.10
2019-06-10T07:39:13.605Z,20.20
2019-06-10T07:41:47.418Z,20.20
2019-06-10T07:44:17.336Z,20.40
2019-06-10T07:46:45.696Z,21.10
2019-06-10T07:52:23.800Z,21.30
2019-06-10T07:55:22.206Z,21.20
2019-06-10T07:58:02.370Z,21.00
2019-06-10T08:00:36.895Z,22.30
2019-06-10T08:03:09.010Z,21.70
2019-06-10T08:09:12.472Z,22.10
2019-06-10T08:12:06.010Z,23.00
2019-06-10T08:15:15.049Z,22.20
2019-06-10T08:17:48.239Z,22.20
2019-06-10T08:20:52.927Z,22.00
2019-06-10T08:23:47.423Z,22.20
2019-06-10T08:26:26.689Z,22.40
2019-06-10T08:28:55.787Z,22.20
2019-06-10T08:31:44.614Z,22.00
2019-06-10T08:34:14.021Z,22.10
2019-06-10T08:36:54.296Z,22.10
2019-06-10T08:39:36.197Z,22.20
2019-06-10T08:42:23.328Z,22.70
2019-06-10T08:44:55.520Z,23.10
2019-06-10T08:47:34.770Z,23.20
2019-06-10T08:50:13.498Z,23.20
2019-06-10T08:53:00.404Z,23.40
2019-06-10T08:55:15.362Z,23.70
2019-06-10T08:57:47.063Z,22.70
2019-06-10T09:00:16.304Z,24.20
2019-06-10T09:02:45.976Z,22.80
2019-06-10T09:05:15.576Z,22.70
2019-06-10T09:07:49.605Z,24.40
2019-06-10T09:10:15.449Z,21.90
2019-06-10T09:12:50.976Z,23.20
2019-06-10T09:15:22.963Z,22.60
2019-06-10T09:17:52.996Z,23.00
2019-06-10T09:20:23.990Z,22.80
2019-06-10T09:23:13.858Z,22.80
2019-06-10T09:25:26.271Z,24.50
2019-06-10T09:27:58.723Z,22.90
2019-06-10T09:30:25.887Z,21.90
2019-06-10T09:32:56.818Z,22.90
2019-06-10T09:35:24.586Z,23.00
2019-06-10T09:38:03.855Z,23.00
2019-06-10T09:40:59.015Z,22.70
2019-06-10T09:43:19.514Z,23.00
2019-06-10T09:45:51.370Z,23.00
2019-06-10T09:48:27.394Z,22.30
2019-06-10T09:50:58.523Z,22.70
2019-06-10T09:53:35.025Z,24.40
2019-06-10T09:55:58.788Z,22.50
2019-06-10T09:58:35.012Z,22.40
2019-06-10T10:01:35.471Z,22.30
2019-06-10T10:04:12.382Z,22.20
2019-06-10T10:06:48.039Z,23.40
2019-06-10T10:09:14.542Z,22.50
2019-06-10T10:12:03.924Z,22.90
2019-06-10T10:14:44.351Z,21.60
2019-06-10T10:20:14.151Z,22.70
2019-06-10T10:22:47.051Z,22.90
2019-06-10T10:25:17.724Z,22.30
2019-06-10T10:27:51.423Z,22.70
2019-06-10T10:30:28.495Z,22.90
2019-06-10T10:32:56.229Z,23.10
2019-06-10T10:35:28.670Z,23.10
2019-06-10T10:37:58.978Z,23.00
2019-06-10T10:40:32.373Z,24.60
2019-06-10T10:43:16.256Z,22.70
2019-06-10T10:45:30.153Z,23.40
2019-06-10T10:47:58.827Z,24.80
2019-06-10T10:50:29.899Z,25.20
2019-06-10T10:52:58.167Z,24.90
2019-06-10T10:55:27.086Z,25.20
2019-06-10T10:57:58.022Z,27.30
2019-06-10T11:00:26.982Z,27.80
2019-06-10T11:02:59.387Z,28.70
2019-06-10T11:05:34.413Z,30.20
2019-06-10T11:08:04.187Z,29.60
2019-06-10T11:10:58.895Z,28.50
2019-06-10T11:13:25.160Z,29.30
2019-06-10T11:15:55.361Z,30.70
2019-06-10T11:18:22.783Z,30.70
2019-06-10T11:20:51.507Z,29.90
2019-06-10T11:23:19.898Z,29.90
2019-06-10T11:25:49.866Z,29.20
2019-06-10T11:28:22.634Z,29.10
2019-06-10T11:30:56.721Z,28.90
2019-06-10T11:33:25.684Z,29.00
2019-06-10T11:36:03.466Z,29.20
2019-06-10T11:38:38.478Z,29.50
2019-06-10T11:41:05.895Z,29.90
2019-06-10T11:43:33.400Z,30.80
2019-06-10T11:46:06.427Z,31.10
2019-06-10T11:48:32.688Z,31.10
2019-06-10T11:51:00.909Z,30.70
2019-06-10T11:53:31.191Z,29.70
2019-06-10T11:55:58.851Z,30.30
2019-06-10T11:58:34.395Z,28.90
2019-06-10T12:00:59.342Z,28.10
2019-06-10T12:03:26.331Z,28.90
2019-06-10T12:05:57.023Z,29.60
2019-06-10T12:08:23.622Z,29.70
2019-06-10T12:10:57.283Z,28.40
2019-06-10T12:13:22.698Z,28.00
2019-06-10T12:16:32.721Z,27.60
2019-06-10T12:18:23.100Z,26.50
2019-06-10T12:20:51.592Z,26.60
2019-06-10T12:23:21.986Z,25.80
2019-06-10T12:25:49.702Z,25.60
2019-06-10T12:28:17.335Z,25.90
2019-06-10T12:30:45.686Z,26.60
2019-06-10T12:33:21.259Z,25.70
2019-06-10T12:35:45.352Z,25.50
2019-06-10T12:38:24.190Z,25.10
2019-06-10T12:40:58.999Z,25.00
2019-06-10T12:43:32.590Z,25.10
2019-06-10T12:46:00.714Z,25.00
2019-06-10T12:48:34.332Z,25.10
2019-06-10T12:51:09.477Z,25.50
2019-06-10T12:53:37.949Z,25.30
2019-06-10T12:56:10.382Z,25.50
2019-06-10T12:58:35.049Z,26.00
2019-06-10T13:01:05.434Z,25.30
2019-06-10T13:03:32.927Z,24.90
2019-06-10T13:06:02.882Z,24.90
2019-06-10T13:08:49.469Z,25.10
2019-06-10T13:11:19.523Z,25.30
2019-06-10T13:13:48.653Z,25.30
2019-06-10T13:16:23.028Z,25.60
2019-06-10T13:18:57.910Z,25.60
2019-06-10T13:21:25.463Z,25.80
2019-06-10T13:23:54.121Z,25.50
2019-06-10T13:26:24.618Z,25.30
2019-06-10T13:28:57.000Z,25.90
2019-06-10T13:31:33.658Z,25.80
2019-06-10T13:34:06.608Z,25.60
2019-06-10T13:36:33.072Z,25.40
2019-06-10T13:39:10.173Z,24.50
2019-06-10T13:41:36.467Z,24.80
2019-06-10T13:44:06.345Z,24.80
2019-06-10T13:46:42.378Z,25.20
2019-06-10T13:49:18.583Z,26.10
2019-06-10T13:51:53.296Z,26.80
2019-06-10T13:54:35.555Z,27.20
2019-06-10T13:57:05.374Z,27.20
2019-06-10T13:59:33.464Z,26.50
2019-06-10T14:02:03.917Z,26.90
2019-06-10T14:04:29.806Z,27.30
2019-06-10T14:07:07.417Z,27.10
2019-06-10T14:09:38.626Z,26.60
2019-06-10T14:12:05.952Z,26.40
2019-06-10T14:14:33.333Z,26.10
2019-06-10T14:17:01.823Z,26.10
2019-06-10T14:19:32.504Z,27.00
2019-06-10T14:21:59.521Z,28.40
2019-06-10T14:24:28.648Z,28.50
2019-06-10T14:26:55.478Z,28.30
2019-06-10T14:29:22.606Z,27.60
2019-06-10T14:31:49.708Z,27.40
2019-06-10T14:34:22.337Z,27.60
2019-06-10T14:36:49.128Z,28.20
2019-06-10T14:39:17.994Z,29.20
2019-06-10T14:41:45.935Z,29.20
2019-06-10T14:44:17.773Z,29.60
2019-06-10T14:46:44.292Z,30.00
2019-06-10T14:49:25.281Z,29.20
2019-06-10T14:52:13.596Z,29.10
2019-06-10T14:54:42.696Z,28.00
2019-06-10T14:57:13.232Z,27.50
2019-06-10T14:59:42.561Z,26.80
2019-06-10T15:02:15.667Z,27.90
2019-06-10T15:04:46.298Z,26.10
2019-06-10T15:07:13.645Z,26.10
2019-06-10T15:09:43.133Z,26.60
2019-06-10T15:12:10.198Z,28.20
2019-06-10T15:14:37.651Z,30.10
2019-06-10T15:17:04.792Z,28.90
2019-06-10T15:19:33.952Z,27.80
2019-06-10T15:22:04.260Z,26.50
2019-06-10T15:24:35.360Z,25.60
2019-06-10T15:27:30.798Z,25.10
2019-06-10T15:29:56.560Z,23.50
2019-06-10T15:32:33.637Z,24.10
2019-06-10T15:34:52.734Z,24.40
2019-06-10T15:37:24.102Z,23.30
2019-06-10T15:40:03.495Z,23.20
2019-06-10T15:42:36.898Z,23.20
2019-06-10T15:45:09.806Z,22.90
2019-06-10T15:47:38.875Z,22.80
2019-06-10T15:50:13.179Z,22.70
2019-06-10T15:52:43.042Z,22.70
2019-06-10T15:55:23.965Z,22.70
2019-06-10T15:57:46.230Z,22.90
2019-06-10T16:00:17.655Z,23.20
2019-06-10T16:02:43.669Z,22.90
2019-06-10T16:05:17.819Z,22.70
2019-06-10T16:07:46.408Z,22.50
2019-06-10T16:10:18.883Z,22.40
2019-06-10T16:12:44.614Z,22.40
2019-06-10T16:15:16.269Z,22.60
2019-06-10T16:18:02.750Z,22.70
2019-06-10T16:20:35.404Z,23.00
2019-06-10T16:23:03.098Z,23.10
2019-06-10T16:25:37.630Z,23.90
2019-06-10T16:28:05.391Z,22.80
2019-06-10T16:30:37.398Z,22.60
2019-06-10T16:33:05.995Z,22.50
2019-06-10T16:35:41.397Z,22.50
2019-06-10T16:38:09.176Z,22.70
2019-06-10T16:40:43.205Z,23.40
2019-06-10T16:43:11.981Z,24.40
2019-06-10T16:45:39.862Z,22.10
2019-06-10T16:48:12.854Z,22.20
2019-06-10T16:50:39.472Z,22.50
2019-06-10T16:53:10.084Z,23.70
2019-06-10T16:55:57.068Z,25.00
2019-06-10T16:58:43.273Z,24.40
2019-06-10T17:01:12.426Z,24.60
2019-06-10T17:03:39.530Z,24.20
2019-06-10T17:06:13.062Z,23.60
2019-06-10T17:08:42.125Z,22.90
2019-06-10T17:11:12.306Z,23.00
2019-06-10T17:13:42.984Z,22.60
2019-06-10T17:16:12.525Z,22.50
2019-06-10T17:18:39.570Z,22.10
2019-06-10T17:21:08.918Z,22.10
2019-06-10T17:24:17.251Z,21.90
2019-06-10T17:26:53.410Z,21.70
2019-06-10T17:29:24.413Z,21.70
2019-06-10T17:31:53.138Z,21.60
2019-06-10T17:37:24.608Z,21.50
2019-06-10T17:39:53.311Z,21.20
2019-06-10T17:42:24.653Z,21.30
2019-06-10T17:44:52.782Z,21.30
2019-06-10T17:47:27.817Z,21.10
2019-06-10T17:49:55.042Z,21.20
2019-06-10T17:52:26.292Z,21.30
2019-06-10T17:58:03.900Z,21.30
2019-06-10T18:01:16.707Z,21.30
2019-06-10T18:03:54.323Z,21.20
2019-06-10T18:06:22.889Z,21.30
2019-06-10T18:08:52.673Z,21.60
2019-06-10T18:11:19.815Z,21.10
2019-06-10T18:13:49.342Z,20.90
2019-06-10T18:16:22.768Z,19.90
2019-06-10T18:18:52.312Z,20.80
2019-06-10T18:21:28.412Z,20.70
2019-06-10T18:24:12.742Z,20.70
2019-06-10T18:27:04.948Z,20.60
2019-06-10T18:29:37.353Z,20.60
2019-06-10T18:32:04.968Z,20.50
2019-06-10T18:34:37.909Z,20.50
2019-06-10T18:37:08.569Z,20.40
2019-06-10T18:39:38.268Z,20.30
2019-06-10T18:42:12.535Z,20.30
2019-06-10T18:44:40.113Z,20.30
2019-06-10T18:47:10.006Z,21.50
2019-06-10T18:49:38.251Z,20.00
2019-06-10T18:52:06.685Z,20.00
2019-06-10T18:57:42.916Z,20.10
2019-06-10T19:00:19.974Z,19.80
2019-06-10T19:02:48.012Z,19.60
2019-06-10T19:05:16.386Z,20.20
2019-06-10T19:07:53.002Z,19.20
2019-06-10T19:10:23.055Z,20.00
2019-06-10T19:12:52.992Z,19.90
2019-06-10T19:15:38.348Z,19.60
2019-06-10T19:18:26.269Z,19.00
2019-06-10T19:20:56.094Z,19.00
2019-06-10T19:24:18.964Z,18.90
2019-06-10T19:26:47.683Z,18.80
2019-06-10T19:29:29.856Z,19.50
2019-06-10T19:32:07.376Z,19.50
2019-06-10T19:34:44.845Z,18.50
2019-06-10T19:37:33.724Z,18.50
2019-06-10T19:40:15.725Z,18.40
2019-06-10T19:42:57.938Z,18.40
2019-06-10T19:45:46.795Z,18.30
2019-06-10T19:48:16.402Z,18.30
2019-06-10T19:51:12.363Z,18.10
2019-06-10T19:57:12.837Z,18.20
2019-06-10T20:03:22.300Z,18.00
2019-06-10T20:05:52.814Z,16.40
2019-06-10T20:08:22.808Z,18.00
2019-06-10T20:11:14.171Z,17.80
2019-06-10T20:13:46.848Z,17.80
2019-06-10T20:16:14.465Z,17.60
2019-06-10T20:18:49.808Z,17.50
2019-06-10T20:21:17.027Z,17.10
2019-06-10T20:23:45.963Z,17.20
2019-06-10T20:29:22.046Z,17.10
2019-06-10T20:31:49.084Z,17.00
2019-06-10T20:34:17.762Z,17.00
2019-06-10T20:36:53.385Z,16.90
2019-06-10T20:39:24.401Z,16.70
2019-06-10T20:41:55.334Z,16.70
2019-06-10T20:44:22.312Z,17.00
2019-06-10T20:46:53.076Z,15.90
2019-06-10T20:49:50.823Z,16.50
2019-06-10T20:52:22.163Z,16.60
2019-06-10T20:54:55.655Z,16.60
2019-06-10T21:03:47.554Z,16.60
2019-06-10T21:06:15.688Z,16.50
2019-06-10T21:08:53.755Z,16.50
2019-06-10T21:11:49.753Z,16.40
2019-06-10T21:14:22.912Z,16.50
2019-06-10T21:16:53.279Z,16.40
2019-06-10T21:19:26.497Z,16.50
2019-06-10T21:21:55.058Z,17.40
2019-06-10T21:24:54.886Z,16.40
2019-06-10T21:36:47.409Z,16.20
2019-06-10T21:50:16.197Z,16.10
2019-06-10T21:56:07.821Z,16.10
2019-06-10T22:05:03.290Z,16.70
2019-06-10T22:08:02.990Z,15.80
2019-06-10T22:21:09.224Z,15.70
2019-06-10T22:24:22.907Z,15.60
2019-06-10T22:30:31.946Z,15.50
2019-06-10T22:33:22.654Z,15.50
2019-06-10T23:00:03.099Z,15.60
2019-06-10T23:07:14.833Z,15.60
2019-06-10T23:10:04.186Z,14.00
2019-06-10T23:13:12.784Z,15.50
2019-06-10T23:15:48.755Z,15.50
2019-06-10T23:18:16.180Z,15.40
2019-06-10T23:20:49.165Z,15.40
2019-06-10T23:23:16.353Z,15.40
2019-06-10T23:25:47.253Z,15.50
2019-06-10T23:28:16.613Z,15.60
2019-06-10T23:30:47.063Z,15.60
2019-06-10T23:33:18.253Z,15.50
2019-06-10T23:35:48.242Z,15.90
2019-06-10T23:38:38.182Z,16.20
2019-06-10T23:41:14.428Z,15.50
2019-06-10T23:43:42.355Z,15.50
2019-06-10T23:46:11.986Z,15.60
2019-06-10T23:48:39.222Z,15.60
2019-06-10T23:51:18.503Z,16.70
2019-06-10T23:53:56.380Z,15.60
